• Join FlightAware (Why Join?)
  • Login
  • US Flag 
04:54AM EDT


 

Airport Tracker/Info


-or-


 

Live Flight TrackerFlight Track Log ✈ FLG4208 ✈ 24-Apr-2013 ✈ KAZO - KDTW

Flight Track Log - Related Links

Times and Time Zones

All times are in EDT time to prevent confusion due to time zone crossing. See the FLG4208 flight status page for this flight to view local times or setup timezone preferences in your user account.

Time Position Orientation Groundspeed Altitude Reporting Facility
EDT Latitude Longitude Course Direction KTS MPH feet Rate Location/Type
12:11PM 42.2939 -85.5039 44° Northeast 209 241 4,900  Level Chicago Center
12:12PM 42.2594 -85.3958 113° Southeast 275 316 8,100 2,940 Climbing Chicago Center
12:13PM 42.2392 -85.3322 113° Southeast 286 329 10,000 1,680 Climbing Cleveland Center
12:14PM 42.2061 -85.2231 112° Southeast 286 329 11,000 540 Climbing Cleveland Center
12:15PM 42.1694 -85.0969 111° Southeast 323 372 11,100  Climbing Cleveland Center
12:16PM 42.1283 -84.9708 114° Southeast 349 402 11,100 180 Level Cleveland Center
12:17PM 42.0894 -84.8394 112° Southeast 363 418 11,500 420 Climbing Cleveland Center
12:18PM 42.0503 -84.7167 113° Southeast 363 418 12,000 240 Climbing Cleveland Center
12:19PM 42.0089 -84.5908 114° Southeast 363 418 12,000  Level Cleveland Center
12:20PM 41.9711 -84.4711 113° Southeast 358 412 12,000  Level Cleveland Center
12:21PM 41.9292 -84.3542 116° Southeast 358 412 12,000  Level Cleveland Center
12:22PM 41.8872 -84.2344 115° Southeast 343 395 12,000  Level Cleveland Center
12:22PM 41.8758 -84.1947 111° Southeast 310 357 12,000  Level Cleveland Center
12:23PM 41.8531 -84.1294 115° Southeast 324 373 12,000  Level Cleveland Center
12:24PM 41.8397 -84.0172 99° East 299 344 12,000 -420 Level Cleveland Center
12:25PM 41.9083 -83.9539 34° Northeast 242 278 11,200 -1,140 Descending Cleveland Center
12:26PM 41.9825 -83.9103 24° Northeast 247 284 9,800 -1,380 Descending Cleveland Center
12:27PM 42.0219 -83.8425 52° Northeast 236 272 8,500 -1,440 Descending Cleveland Center
12:28PM 41.9931 -83.7600 115° Southeast 197 227 7,000 -1,440 Descending Cleveland Center
12:29PM 41.9619 -83.6800 118° Southeast 203 234 5,700 -960 Descending Cleveland Center
12:30PM 41.9367 -83.6092 116° Southeast 185 213 5,000 -360 Descending Cleveland Center
12:31PM 41.9589 -83.5628 57° Northeast 162 186 5,000  Level Cleveland Center
12:32PM 42.0014 -83.5256 33° Northeast 149 171 5,000 -360 Level Cleveland Center
12:33PM 42.0586 -83.4917 24° Northeast 167 192 4,300 -480 Descending Cleveland Center
12:34PM 42.0958 -83.5047 345° North 184 212 4,000 -180 Descending Cleveland Center
12:35PM 42.1108 -83.5697 287° West 196 226 4,000 240 Level Cleveland Center
12:36PM 42.0636 -83.6236 220° Southwest 204 235 4,600 420 Climbing Cleveland Center
12:37PM 42.0167 -83.6633 212° Southwest 198 228 5,000 180 Climbing Cleveland Center
12:38PM 41.9719 -83.6972 209° Southwest 198 228 5,000  Level Cleveland Center
12:39PM 41.9356 -83.6536 138° Southeast 201 231 5,000  Level Cleveland Center
12:40PM 41.9436 -83.5844 81° East 193 222 5,000  Level Cleveland Center